Time;durP1;ratioP1;P1;durP2;ratioP2;P2;SDS_P1;SDS_P2;PMS_P1;PMS_P2;Temp;Humidity;BMP_temperature;BMP_pressure;BME280_temperature;BME280_humidity;BME280_pressure;Samples;Min_cycle;Max_cycle;Signal;HPM_P1;HPM_P2
2022/06/17 00:00:58;;;;;;;6.80;5.40;;;;;;;13.16;69.43;97493.35;110252;1247;67903;-69
2022/06/17 00:03:30;;;;;;;6.80;5.30;;;;;;;13.10;69.61;97489.95;110215;1246;67479;-72
2022/06/17 00:06:03;;;;;;;6.60;4.50;;;;;;;13.07;68.48;97486.24;110147;1247;59931;-67
2022/06/17 00:08:40;;;;;;;5.70;4.80;;;;;;;13.05;68.66;97484.98;109926;1247;59663;-72
2022/06/17 00:11:19;;;;;;;7.00;5.40;;;;;;;13.02;68.63;97482.75;110016;1247;71524;-76
2022/06/17 00:13:48;;;;;;;5.80;4.30;;;;;;;12.97;67.38;97484.75;110181;1247;67857;-77
2022/06/17 00:16:21;;;;;;;7.20;5.60;;;;;;;12.89;67.44;97482.96;110133;1247;69664;-79
2022/06/17 00:18:51;;;;;;;7.60;5.60;;;;;;;12.78;70.54;97484.05;110036;1248;59682;-78
2022/06/17 00:21:31;;;;;;;6.60;5.90;;;;;;;12.67;71.62;97478.97;110197;1247;59669;-72
2022/06/17 00:24:17;;;;;;;7.40;6.30;;;;;;;12.59;70.73;97482.45;110145;1246;71777;-76
2022/06/17 00:26:47;;;;;;;6.50;5.30;;;;;;;12.48;71.52;97479.22;110169;1247;67778;-76
2022/06/17 00:29:19;;;;;;;6.10;5.40;;;;;;;12.42;72.71;97478.70;110206;1247;67605;-72
2022/06/17 00:31:49;;;;;;;7.40;5.30;;;;;;;12.39;72.75;97481.02;109964;1247;59806;-74
2022/06/17 00:34:19;;;;;;;6.90;5.10;;;;;;;12.38;71.72;97480.95;109953;1247;59670;-73
2022/06/17 00:36:50;;;;;;;5.40;4.60;;;;;;;12.35;68.92;97480.30;109926;1248;70579;-78
2022/06/17 00:39:23;;;;;;;6.90;4.50;;;;;;;12.33;68.45;97477.30;110014;1247;68625;-72
2022/06/17 00:41:59;;;;;;;8.00;6.50;;;;;;;12.31;68.66;97479.91;110027;1248;68403;-76
2022/06/17 00:44:54;;;;;;;5.80;5.00;;;;;;;12.22;71.67;97477.95;110107;1247;59707;-76
2022/06/17 00:47:32;;;;;;;5.60;4.40;;;;;;;12.11;72.62;97480.98;110127;1247;59700;-72
2022/06/17 00:50:09;;;;;;;7.80;5.60;;;;;;;12.00;73.31;97478.98;109903;1248;71570;-77
2022/06/17 00:53:17;;;;;;;6.70;5.10;;;;;;;11.95;73.97;97478.73;109998;1247;68498;-74
2022/06/17 00:55:59;;;;;;;5.70;4.90;;;;;;;11.91;73.94;97474.64;110115;1247;69439;-79
2022/06/17 00:58:54;;;;;;;6.70;5.30;;;;;;;11.90;73.48;97474.36;109978;1247;59729;-76
2022/06/17 01:01:24;;;;;;;5.20;4.50;;;;;;;11.90;73.67;97473.17;110182;1247;59668;-72
2022/06/17 01:03:58;;;;;;;5.70;5.10;;;;;;;11.89;73.44;97474.11;109968;1250;71040;-75
2022/06/17 01:06:34;;;;;;;7.00;5.90;;;;;;;11.88;73.68;97473.15;110167;1247;68535;-77
2022/06/17 01:12:16;;;;;;;6.80;5.00;;;;;;;11.89;74.62;97473.91;110155;1247;59751;-77
2022/06/17 01:14:46;;;;;;;5.80;5.30;;;;;;;11.91;72.99;97467.83;109908;1250;59636;-75
2022/06/17 01:17:18;;;;;;;6.80;6.10;;;;;;;11.94;73.83;97466.70;110048;1248;70742;-76
2022/06/17 01:19:55;;;;;;;5.60;5.00;;;;;;;11.98;74.21;97465.89;109893;1250;68376;-76
2022/06/17 01:22:27;;;;;;;6.00;4.90;;;;;;;12.01;74.67;97459.35;109990;1248;68633;-79
2022/06/17 01:25:05;;;;;;;5.90;5.10;;;;;;;12.04;73.82;97456.55;110161;1247;59764;-79
2022/06/17 01:27:39;;;;;;;7.60;5.50;;;;;;;12.06;74.03;97451.83;110280;1247;59704;-70
2022/06/17 01:30:18;;;;;;;8.20;5.70;;;;;;;12.07;72.45;97453.48;110256;1247;70570;-74
2022/06/17 01:32:59;;;;;;;7.50;4.90;;;;;;;12.08;73.71;97449.00;109955;1248;68632;-77
2022/06/17 01:35:37;;;;;;;5.50;4.60;;;;;;;12.11;72.57;97447.77;110178;1247;69442;-71
2022/06/17 01:38:07;;;;;;;5.50;4.90;;;;;;;12.14;71.37;97445.55;109937;1250;59770;-69
2022/06/17 01:40:36;;;;;;;6.60;6.00;;;;;;;12.17;72.59;97448.36;110106;1247;59697;-77
2022/06/17 01:43:09;;;;;;;8.20;5.30;;;;;;;12.20;73.35;97443.88;110035;1247;70968;-76
2022/06/17 01:45:47;;;;;;;7.10;4.80;;;;;;;12.22;72.79;97445.80;110199;1247;68452;-78
2022/06/17 01:48:19;;;;;;;6.60;5.40;;;;;;;12.22;73.91;97448.44;110077;1248;68470;-77
2022/06/17 01:50:52;;;;;;;5.70;5.10;;;;;;;12.21;73.98;97447.47;109950;1248;59741;-77
2022/06/17 01:53:27;;;;;;;5.80;4.90;;;;;;;12.19;74.47;97448.86;109957;1250;59729;-79
2022/06/17 01:56:02;;;;;;;6.10;5.50;;;;;;;12.18;74.40;97448.09;110202;1247;70753;-74
2022/06/17 01:59:02;;;;;;;6.10;5.30;;;;;;;12.13;73.62;97446.56;110033;1248;68479;-77
2022/06/17 02:01:34;;;;;;;5.60;4.90;;;;;;;12.06;74.60;97443.39;109874;1248;69476;-77
2022/06/17 02:04:27;;;;;;;4.90;4.40;;;;;;;12.04;73.82;97439.77;110039;1247;59766;-79
2022/06/17 02:07:11;;;;;;;6.40;5.00;;;;;;;12.00;71.18;97438.30;109931;1248;59745;-77
2022/06/17 02:09:41;;;;;;;6.90;5.30;;;;;;;11.97;74.43;97434.31;109948;1248;71979;-67
2022/06/17 02:12:13;;;;;;;7.60;5.30;;;;;;;11.95;75.70;97430.86;109959;1247;67760;-79
2022/06/17 02:14:54;;;;;;;6.60;5.10;;;;;;;11.94;74.22;97425.49;109782;1250;68531;-77
2022/06/17 02:17:46;;;;;;;6.40;5.80;;;;;;;11.94;75.77;97427.27;110164;1247;59718;-76
2022/06/17 02:20:25;;;;;;;7.80;5.60;;;;;;;11.92;75.57;97422.83;110186;1247;59676;-77
2022/06/17 02:23:02;;;;;;;6.10;5.10;;;;;;;11.92;75.66;97424.09;109900;1248;71512;-77
2022/06/17 02:25:41;;;;;;;6.40;4.90;;;;;;;11.93;72.77;97420.73;109940;1249;67655;-77
2022/06/17 02:28:13;;;;;;;6.10;4.60;;;;;;;11.92;74.75;97423.53;110230;1247;68659;-73
2022/06/17 02:30:46;;;;;;;6.00;5.50;;;;;;;11.93;73.25;97421.94;110176;1247;59681;-76
2022/06/17 02:33:18;;;;;;;6.50;5.10;;;;;;;11.95;74.43;97421.76;110136;1248;59738;-77
2022/06/17 02:35:58;;;;;;;6.10;5.50;;;;;;;11.97;73.87;97421.38;109978;1247;71527;-78
2022/06/17 02:38:34;;;;;;;7.50;5.50;;;;;;;12.01;74.60;97416.08;110029;1248;68820;-79
2022/06/17 02:41:11;;;;;;;5.00;4.50;;;;;;;12.02;73.39;97415.26;110206;1247;69391;-77
2022/06/17 02:43:56;;;;;;;5.60;4.50;;;;;;;12.04;74.75;97418.75;110186;1247;59703;-77
2022/06/17 02:46:31;;;;;;;6.00;5.10;;;;;;;12.07;75.11;97419.92;110062;1247;59693;-77
2022/06/17 02:49:07;;;;;;;6.20;4.50;;;;;;;12.10;74.86;97419.67;110178;1247;71583;-76
2022/06/17 02:51:39;;;;;;;6.20;5.00;;;;;;;12.13;74.70;97419.79;110057;1250;68886;-76
2022/06/17 02:54:19;;;;;;;8.00;6.10;;;;;;;12.15;73.51;97423.11;109932;1248;69226;-74
2022/06/17 02:56:54;;;;;;;7.00;6.20;;;;;;;12.17;72.66;97420.77;110037;1247;59707;-77
2022/06/17 02:59:57;;;;;;;6.20;5.00;;;;;;;12.15;72.35;97420.88;110025;1247;59764;-77
2022/06/17 03:02:36;;;;;;;8.60;5.40;;;;;;;12.13;73.34;97425.05;109942;1248;69822;-76
2022/06/17 03:05:22;;;;;;;5.50;5.00;;;;;;;12.13;74.76;97426.80;109990;1248;68660;-78
2022/06/17 03:07:54;;;;;;;5.70;5.20;;;;;;;12.10;74.34;97422.64;110244;1247;68299;-79
2022/06/17 03:10:36;;;;;;;5.60;5.10;;;;;;;12.10;74.05;97426.01;110188;1247;59685;-78
2022/06/17 03:13:12;;;;;;;6.00;4.90;;;;;;;12.10;73.46;97421.48;110082;1247;59707;-79
2022/06/17 03:15:46;;;;;;;6.50;5.40;;;;;;;12.13;73.12;97422.30;109976;1247;71350;-78
2022/06/17 03:18:17;;;;;;;6.90;5.60;;;;;;;12.18;72.21;97422.89;110083;1247;68442;-77
2022/06/17 03:20:52;;;;;;;8.80;6.50;;;;;;;12.24;71.72;97424.57;109987;1247;69231;-79
2022/06/17 03:23:33;;;;;;;7.30;5.40;;;;;;;12.28;72.40;97427.38;110025;1250;59733;-79
2022/06/17 03:26:13;;;;;;;6.50;5.80;;;;;;;12.33;73.32;97432.89;110054;1248;59698;-78
2022/06/17 03:28:48;;;;;;;6.00;5.10;;;;;;;12.36;73.81;97437.44;110066;1247;71507;-73
2022/06/17 03:31:36;;;;;;;6.00;5.40;;;;;;;12.39;74.05;97429.66;110251;1247;68582;-75
2022/06/17 03:34:19;;;;;;;6.00;4.40;;;;;;;12.46;72.52;97424.34;109949;1250;68726;-73
2022/06/17 03:36:54;;;;;;;5.60;4.60;;;;;;;12.53;73.75;97420.48;109991;1248;59679;-68
2022/06/17 03:39:37;;;;;;;6.60;5.50;;;;;;;12.59;73.96;97419.68;110196;1247;59685;-77
2022/06/17 03:42:15;;;;;;;6.10;5.00;;;;;;;12.67;73.86;97418.46;110182;1247;71381;-77
2022/06/17 03:45:02;;;;;;;5.40;4.90;;;;;;;12.76;73.12;97421.05;110072;1248;68718;-77
2022/06/17 03:48:23;;;;;;;5.70;4.70;;;;;;;12.85;72.68;97418.73;110213;1247;67653;-76
2022/06/17 03:50:55;;;;;;;6.60;5.00;;;;;;;12.99;70.74;97413.25;109626;1252;59718;-73
2022/06/17 03:53:35;;;;;;;5.10;4.40;;;;;;;13.08;71.36;97410.54;109590;1254;59646;-77
2022/06/17 03:56:17;;;;;;;6.40;5.70;;;;;;;13.23;73.13;97410.55;109595;1254;71110;-69
2022/06/17 03:58:47;;;;;;;6.00;5.30;;;;;;;13.38;72.50;97413.52;109657;1253;68710;-74
2022/06/17 04:01:30;;;;;;;6.30;4.10;;;;;;;13.51;71.67;97421.70;109600;1254;67801;-69
2022/06/17 04:04:21;;;;;;;6.90;5.10;;;;;;;13.64;71.78;97427.98;109650;1253;59791;-77
2022/06/17 04:06:55;;;;;;;5.10;4.10;;;;;;;13.72;71.54;97427.24;109702;1253;59702;-67
2022/06/17 04:09:33;;;;;;;4.90;4.40;;;;;;;13.81;71.99;97429.30;109684;1253;71376;-67
2022/06/17 04:12:06;;;;;;;5.70;5.00;;;;;;;13.86;72.60;97429.88;109680;1253;67608;-75
2022/06/17 04:14:50;;;;;;;5.10;4.60;;;;;;;13.92;72.46;97426.94;109473;1255;68555;-79
2022/06/17 04:17:33;;;;;;;4.60;4.20;;;;;;;14.01;71.16;97424.05;109493;1253;59737;-75
2022/06/17 04:20:22;;;;;;;6.40;5.60;;;;;;;14.08;70.16;97423.98;109571;1254;59867;-70
2022/06/17 04:22:56;;;;;;;6.80;5.00;;;;;;;14.14;69.50;97421.92;109611;1253;71354;-80
2022/06/17 04:25:53;;;;;;;7.60;5.30;;;;;;;14.17;68.61;97417.60;109671;1253;68471;-78
2022/06/17 04:28:27;;;;;;;7.70;6.10;;;;;;;14.17;68.83;97415.97;110144;1247;68697;-73
2022/06/17 04:31:00;;;;;;;6.80;5.30;;;;;;;14.19;70.34;97413.02;110123;1247;59719;-78
2022/06/17 04:33:40;;;;;;;9.40;6.50;;;;;;;14.19;71.79;97412.88;110126;1247;60088;-78
2022/06/17 04:36:15;;;;;;;9.50;7.70;;;;;;;14.19;70.67;97413.20;109917;1250;72148;-76
2022/06/17 04:39:15;;;;;;;8.40;5.90;;;;;;;14.19;70.55;97420.07;110029;1248;68487;-77
2022/06/17 04:41:52;;;;;;;6.00;5.20;;;;;;;14.19;72.05;97419.52;110149;1247;69361;-76
2022/06/17 04:44:29;;;;;;;5.60;4.60;;;;;;;14.32;71.28;97422.30;110098;1247;59748;-78
2022/06/17 04:47:04;;;;;;;;;;;;;;;14.46;70.84;97419.95;110009;1247;60161;-76
2022/06/17 04:50:10;;;;;;;5.60;4.60;;;;;;;14.64;70.92;97420.14;110053;1248;71643;-77
2022/06/17 04:52:44;;;;;;;7.00;5.50;;;;;;;14.81;70.29;97421.77;110098;1247;67831;-72
2022/06/17 04:55:36;;;;;;;4.60;4.20;;;;;;;15.00;68.76;97417.79;110169;1247;68687;-73
2022/06/17 04:58:20;;;;;;;6.50;4.50;;;;;;;15.22;67.27;97419.95;110134;1247;59661;-76
2022/06/17 05:00:56;;;;;;;7.00;5.10;;;;;;;15.45;67.78;97424.70;109950;1247;59732;-75
2022/06/17 05:03:48;;;;;;;6.60;4.50;;;;;;;15.68;66.60;97423.16;110013;1247;70565;-75
2022/06/17 05:06:24;;;;;;;6.10;5.20;;;;;;;15.90;65.48;97420.09;110145;1247;68589;-71
2022/06/17 05:09:04;;;;;;;;;;;;;;;16.14;64.77;97419.68;110159;1247;68754;-74
2022/06/17 05:11:37;;;;;;;6.70;5.60;;;;;;;16.46;64.92;97420.84;110018;1249;59736;-76
2022/06/17 05:14:29;;;;;;;5.10;3.90;;;;;;;17.00;65.33;97422.01;110212;1247;59777;-76
2022/06/17 05:16:58;;;;;;;4.30;3.60;;;;;;;17.64;61.66;97419.33;110177;1247;70811;-75
2022/06/17 05:19:29;;;;;;;5.40;3.60;;;;;;;18.03;59.10;97419.48;110195;1247;68605;-76
2022/06/17 05:22:00;;;;;;;4.80;4.00;;;;;;;18.27;59.05;97417.30;110151;1247;68605;-72
2022/06/17 05:24:31;;;;;;;4.90;3.40;;;;;;;18.45;57.73;97415.58;110184;1247;60068;-77
2022/06/17 05:27:00;;;;;;;5.70;3.40;;;;;;;18.54;55.06;97410.58;110225;1247;59688;-75
2022/06/17 05:29:30;;;;;;;;;;;;;;;18.61;54.84;97412.05;110262;1247;71724;-78
2022/06/17 05:32:05;;;;;;;4.70;3.50;;;;;;;18.65;54.32;97418.65;110292;1247;68349;-71
2022/06/17 05:34:40;;;;;;;3.90;3.30;;;;;;;18.61;52.71;97420.59;110151;1246;69435;-76
2022/06/17 05:37:11;;;;;;;2.90;2.50;;;;;;;18.66;53.02;97427.52;110081;1247;59736;-76
2022/06/17 05:39:42;;;;;;;4.50;3.40;;;;;;;18.77;54.23;97438.73;110204;1247;59622;-75
2022/06/17 05:42:12;;;;;;;5.60;4.30;;;;;;;18.87;55.28;97462.20;110089;1248;71568;-76
2022/06/17 05:44:42;;;;;;;9.90;6.40;;;;;;;18.75;54.94;97474.13;110004;1248;68277;-75
2022/06/17 05:47:31;;;;;;;6.80;5.40;;;;;;;18.44;54.91;97466.22;110094;1248;69367;-78
2022/06/17 05:50:22;;;;;;;8.40;6.40;;;;;;;18.25;56.21;97463.23;110145;1247;59758;-77
2022/06/17 05:53:12;;;;;;;7.50;6.30;;;;;;;18.14;56.62;97472.99;110083;1248;59802;-72
2022/06/17 05:55:46;;;;;;;8.20;5.80;;;;;;;18.10;56.11;97465.27;110201;1245;71751;-75
2022/06/17 05:58:14;;;;;;;6.30;5.30;;;;;;;18.16;56.30;97466.98;110145;1247;68649;-76
2022/06/17 06:00:43;;;;;;;7.30;6.50;;;;;;;18.23;56.19;97487.27;110267;1247;69368;-76
2022/06/17 06:03:20;;;;;;;8.20;6.10;;;;;;;18.18;55.88;97471.86;110093;1247;59748;-75
2022/06/17 06:05:50;;;;;;;8.30;6.70;;;;;;;18.17;55.14;97456.26;110202;1247;59634;-75
2022/06/17 06:08:22;;;;;;;6.30;5.30;;;;;;;18.14;54.93;97483.22;110114;1248;70492;-78
2022/06/17 06:10:51;;;;;;;7.90;6.10;;;;;;;18.19;56.71;97484.08;110193;1247;67794;-77
2022/06/17 06:13:24;;;;;;;5.80;5.20;;;;;;;18.17;56.90;97465.23;110132;1247;69315;-77
2022/06/17 06:15:55;;;;;;;7.00;5.20;;;;;;;18.19;56.54;97464.70;110131;1247;59701;-77
2022/06/17 06:18:38;;;;;;;4.30;3.90;;;;;;;18.27;56.68;97468.77;110055;1247;59620;-74
2022/06/17 06:21:11;;;;;;;7.90;4.90;;;;;;;18.37;56.26;97469.08;110182;1247;71674;-75
2022/06/17 06:23:42;;;;;;;5.70;4.20;;;;;;;18.40;55.61;97470.14;110201;1247;68759;-78
2022/06/17 06:26:16;;;;;;;7.00;3.70;;;;;;;18.43;55.57;97473.86;109891;1248;69407;-76
2022/06/17 06:28:49;;;;;;;4.60;4.10;;;;;;;18.48;55.13;97480.10;110284;1247;59704;-71
2022/06/17 06:31:37;;;;;;;5.10;4.60;;;;;;;18.42;54.74;97482.79;110234;1247;59672;-76
2022/06/17 06:34:13;;;;;;;5.90;4.30;;;;;;;18.23;57.01;97482.86;110161;1247;71172;-74
2022/06/17 06:36:43;;;;;;;5.10;4.60;;;;;;;18.18;56.39;97479.96;110118;1248;67992;-76
2022/06/17 06:39:14;;;;;;;6.20;4.80;;;;;;;18.03;56.36;97483.61;110234;1247;68670;-75
2022/06/17 06:41:42;;;;;;;5.30;4.70;;;;;;;17.94;57.21;97483.48;109998;1247;59759;-76
2022/06/17 06:44:11;;;;;;;6.70;4.00;;;;;;;17.77;58.83;97490.35;110142;1248;59691;-72
2022/06/17 06:46:59;;;;;;;4.90;4.40;;;;;;;17.73;58.15;97496.90;110047;1248;70807;-78
2022/06/17 06:49:54;;;;;;;6.20;4.30;;;;;;;17.68;57.66;97498.59;110103;1247;68908;-76
2022/06/17 06:52:25;;;;;;;5.60;4.50;;;;;;;17.66;57.69;97497.58;110012;1247;69090;-71
2022/06/17 06:54:54;;;;;;;5.10;4.10;;;;;;;17.62;57.70;97497.41;109959;1250;59697;-71
2022/06/17 06:57:24;;;;;;;5.20;4.20;;;;;;;17.61;57.70;97501.81;109944;1248;59675;-74
2022/06/17 07:00:06;;;;;;;4.80;4.10;;;;;;;17.59;57.53;97507.67;110245;1247;71608;-74
2022/06/17 07:02:36;;;;;;;5.00;4.50;;;;;;;17.58;57.79;97511.41;109933;1247;69333;-71
2022/06/17 07:05:06;;;;;;;7.10;5.30;;;;;;;17.59;57.87;97514.48;110155;1247;68744;-72
2022/06/17 07:07:39;;;;;;;5.70;4.40;;;;;;;17.56;58.19;97516.69;110059;1248;59770;-77
2022/06/17 07:10:16;;;;;;;4.90;4.40;;;;;;;17.55;58.38;97521.17;109953;1247;59747;-76
2022/06/17 07:12:45;;;;;;;4.40;3.90;;;;;;;17.55;58.77;97525.73;110212;1247;72091;-74
2022/06/17 07:15:16;;;;;;;6.10;4.10;;;;;;;17.56;59.70;97523.94;110209;1247;68668;-73
2022/06/17 07:18:05;;;;;;;6.40;5.00;;;;;;;17.55;59.99;97525.84;110380;1247;68608;-75
2022/06/17 07:20:38;;;;;;;7.10;5.10;;;;;;;17.52;60.08;97531.58;110179;1247;59675;-76
2022/06/17 07:23:10;;;;;;;7.80;5.90;;;;;;;17.47;60.00;97533.53;110159;1248;59734;-78
2022/06/17 07:25:39;;;;;;;6.40;5.20;;;;;;;17.33;61.98;97530.80;110250;1248;71588;-76
2022/06/17 07:28:14;;;;;;;5.70;4.90;;;;;;;17.21;62.71;97530.21;109269;1247;967134;-77
2022/06/17 07:30:46;;;;;;;5.70;4.70;;;;;;;17.14;62.16;97546.57;110525;1247;69423;-78
2022/06/17 07:33:17;;;;;;;6.10;4.50;;;;;;;17.16;63.61;97549.09;110189;1249;59718;-77
2022/06/17 07:35:48;;;;;;;4.70;4.30;;;;;;;17.13;63.19;97554.58;110245;1248;59754;-75
2022/06/17 07:41:10;;;;;;;6.20;4.60;;;;;;;17.10;63.39;97562.46;110208;1248;68623;-77
2022/06/17 07:43:40;;;;;;;6.80;5.70;;;;;;;17.09;63.11;97558.33;110224;1247;69455;-79
2022/06/17 07:46:10;;;;;;;7.30;5.50;;;;;;;17.08;63.30;97561.65;110218;1247;59680;-75
2022/06/17 07:48:40;;;;;;;8.60;6.20;;;;;;;17.06;63.83;97564.95;110263;1246;59684;-77
2022/06/17 07:51:09;;;;;;;7.20;5.70;;;;;;;17.01;64.87;97560.56;109918;1248;71500;-75
2022/06/17 07:53:41;;;;;;;7.30;5.40;;;;;;;16.96;64.92;97561.36;110263;1248;68077;-73
2022/06/17 07:56:13;;;;;;;5.60;5.00;;;;;;;16.94;65.40;97562.85;109989;1248;69689;-73
2022/06/17 07:58:43;;;;;;;10.00;7.10;;;;;;;16.93;65.00;97559.91;110195;1248;59690;-74
2022/06/17 08:01:13;;;;;;;7.70;6.80;;;;;;;16.91;68.22;97557.48;110016;1247;59694;-77
2022/06/17 08:03:42;;;;;;;9.30;7.20;;;;;;;16.88;69.61;97558.63;110228;1247;70780;-74
2022/06/17 08:06:13;;;;;;;8.20;5.90;;;;;;;16.88;68.93;97566.35;110229;1247;68635;-73
2022/06/17 08:08:43;;;;;;;6.80;6.00;;;;;;;16.91;68.56;97569.41;110163;1247;69456;-75
2022/06/17 08:11:13;;;;;;;7.20;6.20;;;;;;;16.93;67.88;97571.89;110117;1245;60032;-75
2022/06/17 08:13:42;;;;;;;8.20;6.80;;;;;;;16.94;70.23;97567.71;110268;1247;59684;-76
2022/06/17 08:16:13;;;;;;;9.00;6.90;;;;;;;16.92;71.92;97566.91;110218;1248;70831;-77
2022/06/17 08:18:43;;;;;;;8.70;7.70;;;;;;;16.92;70.23;97564.19;110267;1248;68570;-75
2022/06/17 08:21:12;;;;;;;8.80;6.70;;;;;;;16.89;69.50;97561.34;110252;1247;69821;-70
2022/06/17 08:23:42;;;;;;;7.20;6.50;;;;;;;16.89;69.84;97558.56;110221;1248;59736;-73
2022/06/17 08:26:11;;;;;;;7.00;6.20;;;;;;;16.87;69.40;97555.73;110286;1248;59688;-74
2022/06/17 08:28:39;;;;;;;9.40;8.50;;;;;;;16.80;71.25;97549.39;110268;1248;71847;-76
2022/06/17 08:31:08;;;;;;;11.50;10.30;;;;;;;16.68;71.92;97543.60;110298;1247;67083;-75
2022/06/17 08:33:37;;;;;;;11.20;9.00;;;;;;;16.56;73.55;97541.40;110270;1247;69300;-71
2022/06/17 08:36:17;;;;;;;10.90;9.80;;;;;;;16.44;73.30;97530.10;110217;1247;59681;-71
2022/06/17 08:39:04;;;;;;;9.90;8.60;;;;;;;16.29;73.26;97531.48;110232;1248;59766;-76
2022/06/17 08:41:36;;;;;;;11.00;8.80;;;;;;;16.09;74.02;97525.64;110237;1248;71402;-77
2022/06/17 08:44:32;;;;;;;9.80;8.40;;;;;;;15.97;74.62;97519.15;110267;1247;68609;-73
2022/06/17 08:47:12;;;;;;;11.60;8.40;;;;;;;15.96;73.01;97515.05;110233;1247;68687;-77
2022/06/17 08:50:04;;;;;;;9.90;8.30;;;;;;;15.98;72.97;97510.32;110266;1248;59706;-76
2022/06/17 08:53:14;;;;;;;9.30;8.20;;;;;;;15.97;74.39;97516.34;110239;1248;59630;-77
2022/06/17 08:55:53;;;;;;;8.90;7.90;;;;;;;16.02;72.15;97526.23;110077;1248;71313;-76
2022/06/17 08:58:49;;;;;;;10.30;8.00;;;;;;;16.04;73.17;97524.83;110119;1247;69203;-78
2022/06/17 09:01:43;;;;;;;11.40;9.60;;;;;;;16.09;76.28;97528.22;110194;1247;67461;-76
2022/06/17 09:04:22;;;;;;;11.30;9.40;;;;;;;16.18;74.76;97533.09;109976;1248;59809;-78
2022/06/17 09:07:15;;;;;;;10.10;8.90;;;;;;;16.21;73.62;97535.23;110240;1248;59739;-77
2022/06/17 09:10:18;;;;;;;10.20;8.00;;;;;;;16.30;74.13;97533.73;110236;1247;71477;-72
2022/06/17 09:13:17;;;;;;;10.00;8.20;;;;;;;16.40;73.75;97537.67;110254;1246;69065;-74
2022/06/17 09:16:18;;;;;;;8.40;6.50;;;;;;;16.54;73.95;97539.33;110219;1246;69087;-75
2022/06/17 09:18:53;;;;;;;10.10;8.00;;;;;;;16.70;74.62;97546.77;110203;1248;59669;-77
2022/06/17 09:21:50;;;;;;;12.60;9.40;;;;;;;16.68;74.13;97550.32;110257;1247;59670;-77
2022/06/17 09:24:40;;;;;;;12.90;9.30;;;;;;;16.74;74.45;97560.30;110221;1247;71649;-76
2022/06/17 09:27:24;;;;;;;9.20;7.90;;;;;;;16.74;73.95;97562.19;110242;1248;68816;-78
2022/06/17 09:30:02;;;;;;;8.20;7.30;;;;;;;16.66;74.58;97565.75;110267;1247;68474;-74
2022/06/17 09:32:41;;;;;;;9.10;8.20;;;;;;;16.55;73.69;97569.33;110180;1245;59741;-78
2022/06/17 09:35:19;;;;;;;10.70;8.60;;;;;;;16.47;73.79;97572.70;110263;1247;59736;-79
2022/06/17 09:38:00;;;;;;;11.20;9.50;;;;;;;16.47;73.53;97572.70;110345;1248;70775;-72
2022/06/17 09:40:35;;;;;;;9.80;8.90;;;;;;;16.44;73.29;97572.78;110276;1248;67790;-76
2022/06/17 09:43:19;;;;;;;10.40;9.20;;;;;;;16.42;73.26;97573.19;110163;1248;68768;-77
2022/06/17 09:45:53;;;;;;;10.70;9.10;;;;;;;16.48;73.36;97574.16;110280;1248;59749;-76
2022/06/17 09:48:32;;;;;;;9.20;7.90;;;;;;;16.52;74.01;97573.59;110216;1248;59776;-76
2022/06/17 09:51:14;;;;;;;10.30;8.70;;;;;;;16.59;72.75;97569.42;110233;1248;70768;-78
2022/06/17 09:54:09;;;;;;;10.90;9.50;;;;;;;16.78;73.25;97569.08;110249;1247;67783;-77
2022/06/17 09:56:56;;;;;;;13.60;10.30;;;;;;;17.06;72.07;97562.20;109875;1248;69368;-69
2022/06/17 09:59:43;;;;;;;11.10;9.80;;;;;;;17.35;69.43;97559.98;110227;1246;59695;-76
2022/06/17 10:02:31;;;;;;;9.60;8.70;;;;;;;17.57;68.39;97557.15;110219;1248;59750;-77
2022/06/17 10:05:11;;;;;;;11.00;8.90;;;;;;;17.78;69.17;97553.90;110232;1247;71555;-76
2022/06/17 10:07:55;;;;;;;11.00;8.60;;;;;;;17.92;67.03;97549.64;110170;1248;66833;-77
2022/06/17 10:11:01;;;;;;;8.80;8.00;;;;;;;18.07;67.29;97551.29;110207;1247;69430;-72
2022/06/17 10:13:37;;;;;;;8.20;7.40;;;;;;;18.34;66.32;97556.65;110020;1247;59760;-77
2022/06/17 10:19:22;;;;;;;9.20;8.10;;;;;;;18.69;66.07;97553.27;110229;1248;71049;-78
2022/06/17 10:22:06;;;;;;;7.60;6.80;;;;;;;18.76;65.86;97551.10;110239;1248;68717;-77
2022/06/17 10:24:45;;;;;;;8.30;6.30;;;;;;;19.01;65.60;97549.52;110226;1247;69533;-78
2022/06/17 10:27:39;;;;;;;7.70;6.90;;;;;;;19.30;63.46;97551.46;110340;1248;59754;-77
2022/06/17 10:30:41;;;;;;;7.80;7.10;;;;;;;19.36;62.47;97547.85;110276;1247;59735;-78
2022/06/17 10:33:12;;;;;;;9.40;7.00;;;;;;;19.51;62.78;97545.20;110170;1247;71322;-78
2022/06/17 10:35:44;;;;;;;6.40;5.80;;;;;;;19.64;61.09;97547.83;110178;1248;68173;-78
2022/06/17 10:38:28;;;;;;;5.20;4.70;;;;;;;20.08;61.50;97541.61;110282;1246;69542;-77
2022/06/17 10:40:58;;;;;;;6.20;5.10;;;;;;;20.39;58.89;97541.89;110259;1248;59701;-77
2022/06/17 10:43:49;;;;;;;5.50;4.80;;;;;;;20.50;58.68;97545.88;110274;1248;59631;-77
2022/06/17 10:46:26;;;;;;;5.30;4.40;;;;;;;20.92;58.07;97539.53;110237;1248;72106;-75
2022/06/17 10:49:11;;;;;;;5.10;4.60;;;;;;;21.20;55.04;97544.54;110305;1248;68407;-77
2022/06/17 10:51:43;;;;;;;5.10;4.20;;;;;;;21.50;54.85;97538.23;110225;1247;69673;-76
2022/06/17 10:54:25;;;;;;;4.30;3.50;;;;;;;22.05;55.77;97537.14;110098;1247;59680;-78
2022/06/17 10:57:05;;;;;;;4.70;4.00;;;;;;;22.56;54.55;97538.40;110222;1248;59664;-75
2022/06/17 10:59:41;;;;;;;5.20;4.30;;;;;;;22.99;53.72;97534.48;110194;1247;72144;-77
2022/06/17 11:02:25;;;;;;;3.50;3.10;;;;;;;23.24;52.43;97533.23;110223;1247;69209;-78
2022/06/17 11:05:00;;;;;;;5.60;4.00;;;;;;;23.37;50.00;97533.54;110129;1250;69545;-77
2022/06/17 11:07:49;;;;;;;5.10;4.60;;;;;;;23.15;49.54;97532.98;110141;1247;59720;-77
2022/06/17 11:10:27;;;;;;;4.80;3.40;;;;;;;23.09;49.63;97531.83;110177;1248;59676;-75
2022/06/17 11:13:01;;;;;;;3.80;3.30;;;;;;;22.90;49.71;97526.32;110174;1248;71581;-77
2022/06/17 11:15:45;;;;;;;5.60;3.90;;;;;;;23.20;52.35;97526.92;110347;1246;68609;-78
2022/06/17 11:18:25;;;;;;;5.40;3.70;;;;;;;23.54;50.15;97518.98;110106;1247;69444;-77
2022/06/17 11:21:08;;;;;;;4.40;3.70;;;;;;;23.74;49.06;97512.02;110221;1247;59704;-75
2022/06/17 11:23:44;;;;;;;4.60;3.70;;;;;;;23.95;50.94;97509.15;110239;1248;59682;-75
2022/06/17 11:26:24;;;;;;;5.30;3.80;;;;;;;23.86;49.35;97508.94;110009;1247;72634;-75
2022/06/17 11:29:04;;;;;;;3.00;2.70;;;;;;;24.07;46.98;97502.70;110214;1247;68111;-79
2022/06/17 11:31:39;;;;;;;3.30;2.90;;;;;;;24.50;47.21;97499.17;110211;1247;68559;-77
2022/06/17 11:34:14;;;;;;;2.90;2.50;;;;;;;24.90;46.86;97501.83;110227;1247;59748;-76
2022/06/17 11:36:58;;;;;;;3.50;2.70;;;;;;;25.26;42.88;97497.27;110293;1247;59680;-78
2022/06/17 11:39:36;;;;;;;2.80;2.50;;;;;;;25.35;43.24;97490.58;110248;1247;72178;-78
2022/06/17 11:42:18;;;;;;;2.90;2.60;;;;;;;25.48;41.26;97485.16;110239;1247;67594;-76
2022/06/17 11:44:56;;;;;;;2.30;2.00;;;;;;;25.67;40.00;97482.38;110238;1247;68618;-74
2022/06/17 11:47:27;;;;;;;2.20;1.90;;;;;;;25.89;40.39;97478.95;109910;1247;59767;-74
2022/06/17 11:50:12;;;;;;;1.70;1.60;;;;;;;26.05;39.27;97475.64;110281;1247;59673;-80
2022/06/17 11:52:44;;;;;;;2.60;1.90;;;;;;;26.10;38.94;97479.99;110192;1247;72327;-76
2022/06/17 11:55:13;;;;;;;2.20;1.80;;;;;;;26.40;38.78;97484.48;110259;1247;68668;-73
2022/06/17 11:58:02;;;;;;;3.40;2.70;;;;;;;26.41;37.47;97485.75;110191;1247;69253;-77
2022/06/17 12:00:55;;;;;;;2.60;2.00;;;;;;;26.58;39.36;97486.35;110277;1247;59753;-73
2022/06/17 12:03:29;;;;;;;3.10;2.30;;;;;;;25.54;38.02;97485.20;110263;1247;59752;-75
2022/06/17 12:06:01;;;;;;;2.80;2.40;;;;;;;25.73;39.40;97477.36;110203;1247;71985;-77
2022/06/17 12:08:46;;;;;;;3.40;2.50;;;;;;;25.91;40.12;97467.70;110230;1248;67944;-75
2022/06/17 12:11:26;;;;;;;4.00;3.00;;;;;;;26.27;40.09;97472.25;110212;1247;69794;-76
2022/06/17 12:13:59;;;;;;;3.60;2.50;;;;;;;26.35;40.83;97467.95;110191;1247;59697;-74
2022/06/17 12:16:39;;;;;;;3.70;2.50;;;;;;;26.45;39.76;97467.95;110051;1248;59719;-73
2022/06/17 12:19:18;;;;;;;3.60;3.30;;;;;;;26.49;39.44;97465.60;110283;1247;71750;-73
2022/06/17 12:21:47;;;;;;;3.80;3.20;;;;;;;25.95;39.43;97460.58;110215;1248;67951;-74
2022/06/17 12:24:27;;;;;;;3.00;2.70;;;;;;;25.85;40.19;97456.54;110193;1247;70035;-73